Time;durP1;ratioP1;P1;durP2;ratioP2;P2;SDS_P1;SDS_P2;PMS_P1;PMS_P2;Temp;Humidity;BMP_temperature;BMP_pressure;BME280_temperature;BME280_humidity;BME280_pressure;Samples;Min_cycle;Max_cycle;Signal;HPM_P1;HPM_P2
2021/07/03 00:00:54;;;;;;;8.38;6.13;;;17.90;64.50;;;18.25;52.87;97737.69;5024230;28;20049;-43
2021/07/03 00:03:23;;;;;;;8.90;5.95;;;17.90;64.80;;;18.22;52.85;97737.28;5024663;28;20486;-42
2021/07/03 00:05:51;;;;;;;7.90;5.88;;;17.90;64.90;;;18.19;53.01;97743.09;5026330;28;20512;-42
2021/07/03 00:08:19;;;;;;;8.40;6.75;;;17.80;64.90;;;18.17;53.05;97737.09;5025185;28;20045;-42
2021/07/03 00:10:47;;;;;;;9.60;6.28;;;17.80;65.00;;;18.15;52.83;97742.69;5025535;28;20521;-42
2021/07/03 00:13:15;;;;;;;9.07;5.43;;;17.80;64.70;;;18.15;52.97;97744.53;5025174;28;20366;-43
2021/07/03 00:15:43;;;;;;;8.45;6.10;;;17.80;64.60;;;18.14;52.63;97749.09;5026338;28;20369;-43
2021/07/03 00:18:11;;;;;;;8.82;6.60;;;17.80;64.20;;;18.15;52.68;97742.69;5025016;28;20051;-42
2021/07/03 00:20:39;;;;;;;6.68;4.97;;;17.90;64.00;;;18.17;52.46;97739.78;5025480;28;20251;-43
2021/07/03 00:23:07;;;;;;;6.72;5.40;;;17.90;63.90;;;18.15;52.61;97745.38;5024250;28;20389;-43
2021/07/03 00:25:37;;;;;;;6.53;5.28;;;17.90;64.10;;;18.14;52.75;97746.38;5025142;28;20262;-43
2021/07/03 00:28:05;;;;;;;7.57;6.03;;;17.80;64.20;;;18.12;52.87;97745.78;5022866;28;20461;-42
2021/07/03 00:30:33;;;;;;;8.60;5.90;;;17.80;64.50;;;18.08;52.96;97744.53;5023606;28;20363;-43
2021/07/03 00:33:02;;;;;;;10.73;5.90;;;17.70;64.70;;;18.03;52.88;97749.69;5025679;28;20057;-43
2021/07/03 00:35:30;;;;;;;7.72;5.50;;;17.70;64.90;;;17.99;53.17;97748.44;5025936;28;20067;-43
2021/07/03 00:37:58;;;;;;;7.70;5.90;;;17.60;65.20;;;17.95;53.07;97749.91;5023976;28;20083;-45
2021/07/03 00:40:28;;;;;;;8.23;6.50;;;17.50;65.40;;;17.90;53.27;97750.53;5040237;28;20259;-41
2021/07/03 00:42:56;;;;;;;6.75;5.55;;;17.50;65.60;;;17.87;53.50;97751.78;5039566;28;20064;-42
2021/07/03 00:45:25;;;;;;;6.70;5.88;;;17.60;65.90;;;17.84;53.68;97749.47;5040362;28;20097;-43
2021/07/03 00:47:54;;;;;;;8.50;6.32;;;17.40;65.90;;;17.83;53.53;97744.25;5040579;28;20415;-43
2021/07/03 00:50:24;;;;;;;9.07;6.30;;;17.40;65.90;;;17.77;53.77;97745.91;5024413;28;20052;-43
2021/07/03 00:52:53;;;;;;;6.90;5.63;;;17.40;66.30;;;17.71;53.74;97746.75;5023411;28;20358;-45
2021/07/03 00:55:27;;;;;;;9.43;6.32;;;17.20;66.40;;;17.66;53.93;97749.19;5024064;28;20045;-43
2021/07/03 00:57:57;;;;;;;6.93;5.50;;;17.20;66.70;;;17.64;53.95;97745.88;5041108;28;20056;-42
2021/07/03 01:00:31;;;;;;;7.25;5.85;;;17.20;66.60;;;17.62;53.88;97750.66;5044196;28;20068;-42
2021/07/03 01:03:02;;;;;;;7.10;5.80;;;17.20;66.40;;;17.62;53.95;97750.66;5044476;28;20246;-42
2021/07/03 01:05:30;;;;;;;7.65;5.97;;;17.20;66.30;;;17.64;54.16;97744.03;5029160;28;20346;-43
2021/07/03 01:07:59;;;;;;;7.60;6.22;;;17.30;66.30;;;17.65;54.18;97751.06;5043963;28;20060;-43
2021/07/03 01:10:31;;;;;;;8.65;7.03;;;17.40;66.30;;;17.63;54.32;97737.00;5028977;28;20061;-42
2021/07/03 01:13:13;;;;;;;6.95;5.47;;;17.30;66.60;;;17.61;54.44;97739.06;5029199;28;20262;-42
2021/07/03 01:15:42;;;;;;;7.75;5.53;;;17.30;66.60;;;17.58;54.45;97742.13;5027315;28;20049;-42
2021/07/03 01:18:11;;;;;;;8.25;6.13;;;17.20;66.60;;;17.56;54.54;97738.00;5044682;28;20662;-43
2021/07/03 01:20:44;;;;;;;10.10;6.78;;;17.20;67.00;;;17.54;54.63;97745.44;5028063;28;20041;-43
2021/07/03 01:23:12;;;;;;;7.35;6.03;;;17.20;67.10;;;17.52;54.53;97738.44;5042807;28;20057;-42
2021/07/03 01:25:41;;;;;;;7.88;6.25;;;17.20;67.10;;;17.51;54.61;97736.75;5028478;28;20378;-42
2021/07/03 01:28:09;;;;;;;6.90;5.55;;;17.20;67.10;;;17.53;54.76;97741.94;5043053;28;20053;-42
2021/07/03 01:30:43;;;;;;;8.52;6.35;;;17.20;67.00;;;17.54;54.90;97743.59;5044517;28;20054;-41
2021/07/03 01:33:13;;;;;;;7.22;5.65;;;17.20;67.10;;;17.55;54.90;97734.50;5041867;28;20037;-42
2021/07/03 01:35:41;;;;;;;6.78;5.97;;;17.30;67.00;;;17.55;54.91;97742.56;5044868;28;20060;-42
2021/07/03 01:38:20;;;;;;;7.35;6.45;;;17.30;67.00;;;17.56;54.97;97738.00;5042549;28;20278;-43
2021/07/03 01:40:51;;;;;;;10.55;7.00;;;17.30;67.10;;;17.56;55.00;97740.69;5027192;28;20049;-42
2021/07/03 01:43:26;;;;;;;11.57;6.83;;;17.30;67.20;;;17.51;54.83;97736.75;5027327;28;20350;-42
2021/07/03 01:45:57;;;;;;;8.23;6.20;;;17.20;67.40;;;17.48;54.86;97736.31;5044428;28;20057;-42
2021/07/03 01:48:32;;;;;;;7.75;5.97;;;17.10;67.50;;;17.43;54.78;97739.63;5041508;28;20053;-42
2021/07/03 01:51:03;;;;;;;10.48;7.72;;;17.10;67.50;;;17.39;55.05;97735.69;5043331;28;20063;-41
2021/07/03 01:53:32;;;;;;;6.72;5.82;;;17.00;67.60;;;17.36;54.99;97740.66;5027217;28;20057;-41
2021/07/03 01:56:03;;;;;;;7.75;5.78;;;17.00;67.70;;;17.35;55.13;97734.44;5029271;28;20055;-41
2021/07/03 01:58:35;;;;;;;6.93;5.88;;;17.00;67.60;;;17.33;55.03;97739.16;5027114;28;20061;-42
2021/07/03 02:01:23;;;;;;;8.05;6.65;;;17.00;67.50;;;17.30;55.26;97745.78;5027352;28;20390;-43
2021/07/03 02:03:51;;;;;;;7.30;5.05;;;17.00;67.60;;;17.28;55.17;97736.28;5028528;28;20590;-42
2021/07/03 02:06:30;;;;;;;7.45;5.75;;;16.90;67.80;;;17.27;55.16;97731.91;5041893;28;20192;-43
2021/07/03 02:08:57;;;;;;;6.72;6.00;;;17.00;67.60;;;17.29;55.02;97736.09;5028243;28;20054;-42
2021/07/03 02:11:26;;;;;;;9.15;5.95;;;17.00;67.30;;;17.31;55.19;97738.53;5041584;28;20049;-43
2021/07/03 02:14:02;;;;;;;8.70;6.38;;;17.10;67.30;;;17.35;55.10;97725.53;5028125;28;20061;-42
2021/07/03 02:16:39;;;;;;;7.50;6.25;;;17.10;67.10;;;17.32;55.11;97729.47;5041901;28;20355;-45
2021/07/03 02:19:10;;;;;;;9.60;6.50;;;17.10;67.20;;;17.31;55.10;97728.63;5025257;28;20069;-41
2021/07/03 02:21:39;;;;;;;7.38;6.38;;;17.10;67.20;;;17.31;55.17;97728.63;5027570;28;20061;-42
2021/07/03 02:24:14;;;;;;;9.60;6.22;;;17.00;67.30;;;17.28;55.04;97725.50;5041506;28;20220;-42
2021/07/03 02:26:43;;;;;;;7.85;6.03;;;17.00;67.30;;;17.29;55.09;97724.47;5029418;28;20057;-42
2021/07/03 02:29:12;;;;;;;8.65;6.80;;;17.00;67.50;;;17.28;55.33;97729.03;5043130;28;20076;-42
2021/07/03 02:31:40;;;;;;;7.97;6.43;;;17.00;67.40;;;17.28;55.14;97722.81;5026755;28;20053;-42
2021/07/03 02:34:08;;;;;;;7.28;5.90;;;17.00;67.30;;;17.27;55.14;97719.31;5027825;28;20228;-42
2021/07/03 02:36:36;;;;;;;8.05;5.68;;;17.00;67.30;;;17.29;55.27;97719.09;5026670;28;20369;-43
2021/07/03 02:39:10;;;;;;;8.73;5.95;;;17.00;67.30;;;17.27;55.27;97715.78;5042105;28;20063;-42
2021/07/03 02:41:44;;;;;;;7.38;5.93;;;17.00;67.30;;;17.27;55.41;97721.16;5040874;28;20056;-42
2021/07/03 02:44:13;;;;;;;7.72;6.20;;;17.00;67.60;;;17.23;55.28;97719.91;5028037;28;20661;-42
2021/07/03 02:46:41;;;;;;;8.07;6.30;;;16.90;67.80;;;17.21;55.35;97719.28;5026119;28;20531;-42
2021/07/03 02:49:09;;;;;;;7.32;5.85;;;16.90;67.90;;;17.17;55.51;97716.16;5026368;28;20328;-42
2021/07/03 02:51:38;;;;;;;7.18;6.05;;;16.80;67.90;;;17.14;55.66;97716.56;5041980;28;20385;-42
2021/07/03 02:54:06;;;;;;;7.82;5.75;;;16.80;68.00;;;17.10;55.56;97720.69;5042010;28;20053;-43
2021/07/03 02:56:35;;;;;;;8.63;5.97;;;16.80;68.10;;;17.08;55.59;97718.19;5041591;28;20045;-43
2021/07/03 02:59:04;;;;;;;7.35;6.15;;;16.80;68.20;;;17.08;55.75;97730.84;5027444;28;20053;-44
2021/07/03 03:01:33;;;;;;;8.52;6.18;;;16.80;68.20;;;17.08;55.61;97733.53;5041067;28;20657;-42
2021/07/03 03:04:04;;;;;;;9.15;6.30;;;16.80;68.10;;;17.08;55.73;97737.03;5041088;28;20069;-42
2021/07/03 03:06:33;;;;;;;8.40;6.43;;;16.80;68.10;;;17.09;56.03;97741.38;5042183;28;20407;-43
2021/07/03 03:09:01;;;;;;;8.38;6.45;;;16.80;68.30;;;17.11;56.06;97741.16;5023543;28;20259;-42
2021/07/03 03:11:30;;;;;;;10.25;6.97;;;16.80;68.70;;;17.09;56.16;97741.38;5042157;28;20049;-42
2021/07/03 03:13:58;;;;;;;12.43;8.35;;;16.80;69.10;;;17.05;56.37;97733.91;5026135;28;20217;-42
2021/07/03 03:16:27;;;;;;;10.20;8.73;;;16.70;69.40;;;17.01;56.50;97738.03;5026259;28;20046;-42
2021/07/03 03:18:58;;;;;;;12.68;9.60;;;16.60;69.70;;;16.97;56.33;97732.22;5040711;28;20068;-45
2021/07/03 03:21:29;;;;;;;12.55;9.18;;;16.60;69.90;;;16.91;56.68;97720.41;5024038;28;20588;-43
2021/07/03 03:23:58;;;;;;;10.13;7.35;;;16.50;70.20;;;16.86;56.68;97722.84;5026148;28;20059;-43
2021/07/03 03:26:32;;;;;;;11.50;7.75;;;16.40;70.30;;;16.76;56.82;97722.34;5043024;28;20059;-42
2021/07/03 03:29:01;;;;;;;11.00;8.63;;;16.20;71.00;;;16.70;56.88;97725.84;5038798;28;20049;-43
2021/07/03 03:31:29;;;;;;;9.82;7.47;;;16.20;71.40;;;16.65;57.04;97713.00;5038992;28;20054;-43
2021/07/03 03:33:58;;;;;;;11.63;8.50;;;16.20;71.40;;;16.64;57.37;97718.56;5025997;28;20050;-43
2021/07/03 03:36:27;;;;;;;9.40;7.75;;;16.20;71.60;;;16.62;57.33;97709.88;5025225;28;20063;-42
2021/07/03 03:38:55;;;;;;;12.18;8.45;;;16.20;71.70;;;16.58;57.27;97717.50;5026800;28;20057;-43
2021/07/03 03:41:23;;;;;;;12.13;8.43;;;16.10;71.80;;;16.54;57.24;97724.31;5025777;28;20457;-43
2021/07/03 03:43:52;;;;;;;9.93;8.50;;;16.10;71.90;;;16.53;57.47;97717.25;5024759;28;20339;-42
2021/07/03 03:46:25;;;;;;;14.52;7.82;;;16.10;71.90;;;16.50;57.64;97715.81;5041271;28;20055;-44
2021/07/03 03:48:54;;;;;;;11.02;7.60;;;16.10;72.00;;;16.50;57.75;97715.81;5041263;28;20045;-44
2021/07/03 03:51:25;;;;;;;10.70;7.82;;;16.10;72.20;;;16.49;57.75;97711.44;5040883;28;20409;-42
2021/07/03 03:53:53;;;;;;;10.38;7.15;;;16.10;72.10;;;16.49;57.86;97713.31;5040788;28;20055;-45
2021/07/03 03:56:21;;;;;;;8.60;7.07;;;16.20;71.90;;;16.48;57.81;97709.81;5025394;28;20049;-43
2021/07/03 03:58:50;;;;;;;8.80;7.05;;;16.20;71.70;;;16.50;57.79;97706.94;5025058;28;20053;-42
2021/07/03 04:01:22;;;;;;;8.63;6.93;;;16.20;71.70;;;16.48;58.05;97707.13;5040014;28;20361;-43
2021/07/03 04:03:50;;;;;;;10.00;6.68;;;16.20;71.70;;;16.46;58.14;97705.63;5024238;28;20057;-43
2021/07/03 04:06:19;;;;;;;7.90;6.30;;;16.10;72.10;;;16.42;58.18;97707.06;5026468;28;20045;-43
2021/07/03 04:08:47;;;;;;;8.85;6.25;;;16.10;72.60;;;16.37;58.43;97709.53;5040871;28;20057;-43
2021/07/03 04:11:15;;;;;;;9.88;7.80;;;16.00;72.80;;;16.33;58.61;97712.59;5024468;28;20051;-42
2021/07/03 04:13:43;;;;;;;9.77;7.90;;;15.90;73.20;;;16.26;58.91;97714.38;5025573;28;20044;-42
2021/07/03 04:16:11;;;;;;;10.80;7.40;;;15.80;73.70;;;16.21;59.04;97722.22;5024364;28;20061;-43
2021/07/03 04:18:39;;;;;;;11.27;7.75;;;15.70;74.30;;;16.17;59.36;97720.09;5023276;28;20042;-42
2021/07/03 04:21:07;;;;;;;10.07;6.78;;;15.70;74.60;;;16.14;59.29;97721.34;5024680;28;20053;-42
2021/07/03 04:23:35;;;;;;;9.23;6.95;;;15.80;74.60;;;16.14;59.39;97721.34;5023544;28;20057;-42
2021/07/03 04:26:03;;;;;;;11.13;7.43;;;15.80;74.70;;;16.13;59.53;97722.38;5025779;28;20037;-43
2021/07/03 04:28:31;;;;;;;7.90;6.50;;;15.70;74.80;;;16.14;59.54;97721.34;5024273;28;20049;-42
2021/07/03 04:30:59;;;;;;;11.10;7.85;;;15.80;74.70;;;16.15;59.61;97720.31;5053393;22;20699;-40
2021/07/03 04:33:27;;;;;;;10.25;7.55;;;15.80;74.80;;;16.16;59.84;97719.28;5044656;28;20063;-40
2021/07/03 04:35:55;;;;;;;9.80;7.90;;;15.80;74.70;;;16.18;59.83;97724.47;5044475;28;20352;-40
2021/07/03 04:38:22;;;;;;;8.90;6.90;;;15.90;74.80;;;16.22;59.61;97728.41;5044625;28;20063;-40
2021/07/03 04:40:50;;;;;;;9.75;7.00;;;15.90;74.50;;;16.27;59.71;97718.75;5044455;28;20115;-40
2021/07/03 04:43:18;;;;;;;8.50;6.75;;;16.10;74.00;;;16.39;59.46;97723.59;5045622;28;20063;-40
2021/07/03 04:45:46;;;;;;;8.73;6.63;;;16.20;73.50;;;16.43;59.28;97722.97;5043566;28;20052;-40
2021/07/03 04:48:14;;;;;;;8.00;6.72;;;16.30;73.20;;;16.50;59.16;97726.56;5045025;28;20237;-40
2021/07/03 04:50:47;;;;;;;7.70;6.45;;;16.30;73.00;;;16.53;59.27;97719.94;5044393;28;20071;-40
2021/07/03 04:53:15;;;;;;;8.07;6.80;;;16.40;73.00;;;16.59;59.35;97718.31;5044051;28;20285;-40
2021/07/03 04:55:45;;;;;;;10.50;6.80;;;16.40;72.90;;;16.65;59.29;97717.53;5059746;28;20053;-40
2021/07/03 04:58:14;;;;;;;9.07;7.13;;;16.50;72.70;;;16.69;59.25;97718.78;5060687;28;20330;-40
2021/07/03 05:00:43;;;;;;;9.38;7.38;;;16.60;72.50;;;16.72;59.40;97713.03;5046343;28;20059;-40
2021/07/03 05:03:11;;;;;;;7.93;6.63;;;16.60;72.60;;;16.77;59.07;97713.28;5043725;28;20087;-40
2021/07/03 05:05:39;;;;;;;8.32;5.78;;;16.60;72.50;;;16.81;59.19;97719.91;5044775;28;20065;-40
2021/07/03 05:08:07;;;;;;;9.20;6.55;;;16.70;72.40;;;16.86;59.12;97727.41;5043843;28;20057;-40
2021/07/03 05:10:35;;;;;;;8.63;6.57;;;16.70;72.30;;;16.87;59.26;97719.13;5042805;28;20060;-40
2021/07/03 05:13:03;;;;;;;8.65;6.38;;;16.70;72.60;;;16.91;59.09;97725.78;5042778;28;20262;-40
2021/07/03 05:15:31;;;;;;;8.63;6.38;;;16.80;72.60;;;16.97;59.38;97726.03;5045681;28;20223;-40
2021/07/03 05:18:02;;;;;;;7.18;6.45;;;16.80;72.60;;;17.00;59.22;97718.38;5044513;28;20053;-40
2021/07/03 05:20:31;;;;;;;8.20;5.47;;;16.90;72.60;;;17.04;59.19;97705.34;5044124;28;20061;-40
2021/07/03 05:22:59;;;;;;;8.68;6.47;;;17.00;72.50;;;17.08;59.13;97710.13;5044455;28;20462;-40
2021/07/03 05:25:27;;;;;;;8.55;6.32;;;17.00;72.10;;;17.13;58.99;97704.97;5045516;28;20405;-40
2021/07/03 05:27:55;;;;;;;7.43;5.95;;;17.10;71.70;;;17.19;58.79;97705.19;5044806;28;20051;-39
2021/07/03 05:30:23;;;;;;;6.47;5.55;;;17.20;71.20;;;17.25;58.67;97707.06;5044116;28;20261;-39
2021/07/03 05:32:51;;;;;;;9.07;6.88;;;17.20;70.90;;;17.29;58.45;97703.78;5043256;28;20220;-39
2021/07/03 05:35:19;;;;;;;9.50;5.85;;;17.30;70.80;;;17.34;58.38;97708.56;5045487;28;20079;-40
2021/07/03 05:37:47;;;;;;;8.80;6.38;;;17.30;70.40;;;17.37;58.09;97707.31;5044242;28;20057;-40
2021/07/03 05:40:16;;;;;;;8.82;5.47;;;17.40;70.20;;;17.41;57.90;97711.25;5044034;28;20063;-40
2021/07/03 05:42:45;;;;;;;9.40;5.88;;;17.40;70.00;;;17.47;57.90;97721.22;5044024;28;20049;-40
2021/07/03 05:45:15;;;;;;;9.38;6.00;;;17.50;69.80;;;17.51;57.70;97714.41;5043628;28;20408;-40
2021/07/03 05:47:50;;;;;;;7.65;5.88;;;17.50;69.60;;;17.57;58.18;97710.06;5048280;28;20477;-40
2021/07/03 05:50:27;;;;;;;5.88;5.22;;;17.60;69.60;;;17.61;57.79;97712.13;5048159;28;20048;-40
2021/07/03 05:52:55;;;;;;;8.35;6.20;;;17.70;69.30;;;17.68;57.41;97714.81;5047423;28;20041;-40
2021/07/03 05:55:24;;;;;;;7.07;4.90;;;17.80;69.10;;;17.72;57.42;97710.72;5047828;28;20241;-40
2021/07/03 05:57:52;;;;;;;8.85;5.82;;;17.80;69.00;;;17.80;57.50;97717.78;5047750;28;20059;-41
2021/07/03 06:00:21;;;;;;;6.15;4.93;;;17.80;68.90;;;17.83;57.48;97712.78;5046218;28;20123;-40
2021/07/03 06:02:49;;;;;;;7.47;6.38;;;17.90;69.10;;;17.88;57.61;97717.59;5046079;28;20045;-40
2021/07/03 06:05:17;;;;;;;8.75;6.25;;;17.90;69.10;;;17.93;57.83;97707.00;5046801;28;20057;-40
2021/07/03 06:07:45;;;;;;;7.10;5.30;;;18.00;69.40;;;17.98;57.66;97704.53;5047383;28;20063;-40
2021/07/03 06:10:13;;;;;;;7.80;6.18;;;18.10;69.40;;;18.03;57.96;97699.38;5046578;28;20045;-41
2021/07/03 06:12:42;;;;;;;8.43;6.85;;;18.20;70.10;;;18.09;57.99;97703.09;5044497;28;20053;-41
2021/07/03 06:15:12;;;;;;;7.70;6.10;;;18.20;69.70;;;18.14;58.04;97705.16;5047706;28;20339;-41
2021/07/03 06:17:40;;;;;;;7.40;6.03;;;18.20;69.70;;;18.18;57.80;97703.69;5046456;28;20208;-41
2021/07/03 06:20:09;;;;;;;7.40;6.35;;;18.30;69.70;;;18.21;57.67;97698.72;5046688;28;20208;-41
2021/07/03 06:22:38;;;;;;;7.18;5.72;;;18.30;69.30;;;18.25;57.89;97697.28;5046868;28;20244;-39
2021/07/03 06:25:09;;;;;;;7.88;6.32;;;18.40;69.30;;;18.30;57.68;97693.97;5048353;28;20059;-40
2021/07/03 06:27:39;;;;;;;10.15;6.28;;;18.40;69.30;;;18.33;57.63;97695.41;5046826;28;20045;-40
2021/07/03 06:30:11;;;;;;;6.10;5.43;;;18.50;69.20;;;18.38;57.54;97693.75;5044448;28;20258;-40
2021/07/03 06:32:39;;;;;;;7.40;5.82;;;18.50;69.10;;;18.42;57.33;97694.16;5046013;28;20374;-40
2021/07/03 06:35:08;;;;;;;7.40;6.20;;;18.50;68.70;;;18.46;57.32;97698.09;5047580;28;20055;-40
2021/07/03 06:37:40;;;;;;;8.20;5.78;;;18.60;68.60;;;18.51;57.37;97698.25;5041972;28;20059;-41
2021/07/03 06:40:08;;;;;;;10.05;6.53;;;18.70;68.70;;;18.55;57.51;97696.78;5044722;28;20063;-40
2021/07/03 06:42:36;;;;;;;6.13;5.35;;;18.70;68.80;;;18.60;57.28;97697.00;5044478;28;20432;-40
2021/07/03 06:45:06;;;;;;;5.90;5.20;;;18.80;68.50;;;18.65;57.20;97693.66;5047047;28;20045;-40
2021/07/03 06:47:36;;;;;;;6.32;5.72;;;18.80;68.50;;;18.70;57.13;97694.69;5045807;28;20254;-40
2021/07/03 06:50:06;;;;;;;7.80;6.60;;;18.90;68.20;;;18.75;57.45;97694.06;5045303;28;20055;-40
2021/07/03 06:52:35;;;;;;;8.48;6.13;;;18.90;68.60;;;18.79;57.35;97697.16;5047276;28;20053;-41
2021/07/03 06:55:04;;;;;;;7.55;5.60;;;19.00;68.60;;;18.83;57.29;97696.56;5044504;28;20057;-40
2021/07/03 06:57:33;;;;;;;8.52;5.70;;;19.00;68.30;;;18.90;57.17;97701.91;5060513;28;20049;-41
2021/07/03 07:00:01;;;;;;;8.00;5.07;;;19.10;68.30;;;18.93;56.93;97698.81;5047922;28;20396;-41
2021/07/03 07:02:29;;;;;;;7.88;6.35;;;19.20;67.90;;;19.00;57.05;97699.59;5047290;28;20053;-40
2021/07/03 07:04:57;;;;;;;6.60;5.60;;;19.20;68.00;;;19.04;56.51;97706.22;5061715;28;20049;-40
2021/07/03 07:07:25;;;;;;;7.32;5.53;;;19.30;67.30;;;19.10;55.98;97709.13;5045290;28;20055;-40
2021/07/03 07:09:53;;;;;;;9.65;5.75;;;19.30;66.40;;;19.14;56.26;97694.97;5047914;28;20044;-40
2021/07/03 07:12:21;;;;;;;6.00;5.40;;;19.40;67.00;;;19.22;56.04;97694.72;5046361;28;20048;-40
2021/07/03 07:14:49;;;;;;;9.13;5.95;;;19.40;66.60;;;19.26;56.08;97695.94;5062430;28;20330;-40
2021/07/03 07:17:16;;;;;;;8.90;6.50;;;19.50;66.80;;;19.32;55.90;97693.44;5045626;28;20222;-40
2021/07/03 07:19:44;;;;;;;7.72;5.40;;;19.60;66.40;;;19.38;56.03;97689.88;5045588;28;20049;-41
2021/07/03 07:22:12;;;;;;;7.28;5.30;;;19.60;66.30;;;19.43;55.86;97696.28;5044765;28;20071;-40
2021/07/03 07:24:41;;;;;;;7.45;5.22;;;19.70;67.20;;;19.47;55.53;97683.19;5044642;28;20061;-40
2021/07/03 07:27:09;;;;;;;5.97;4.95;;;19.70;66.00;;;19.52;55.46;97690.63;5044691;28;20067;-40
2021/07/03 07:29:37;;;;;;;5.82;5.00;;;19.80;65.80;;;19.58;55.21;97689.75;5045997;28;20067;-40
2021/07/03 07:32:10;;;;;;;;;;;19.80;65.40;;;19.57;55.08;97685.41;5046328;28;20063;-40
2021/07/03 07:34:38;;;;;;;7.93;5.72;;;19.80;64.90;;;19.62;54.78;97686.41;5044801;28;19925;-40
2021/07/03 07:37:08;;;;;;;7.13;6.00;;;19.90;65.10;;;19.67;54.46;97683.03;5045893;28;20061;-40
2021/07/03 07:39:36;;;;;;;5.75;4.70;;;19.90;64.70;;;19.68;54.43;97685.53;5044605;28;20374;-40
2021/07/03 07:42:05;;;;;;;9.68;5.32;;;19.90;64.50;;;19.74;54.09;97688.44;5045125;28;20079;-40
2021/07/03 07:44:33;;;;;;;6.85;5.70;;;20.00;63.90;;;19.78;54.11;97685.06;5046233;28;20384;-40
2021/07/03 07:47:01;;;;;;;8.90;5.28;;;20.00;63.70;;;19.82;54.05;97674.66;5045978;28;20053;-40
2021/07/03 07:49:29;;;;;;;6.63;5.13;;;20.00;63.70;;;19.86;53.58;97674.00;5042898;28;20059;-40
2021/07/03 07:51:58;;;;;;;7.32;5.30;;;20.10;63.10;;;19.89;52.91;97674.59;5044544;28;20041;-40
2021/07/03 07:54:26;;;;;;;7.57;5.13;;;20.10;62.60;;;19.90;53.20;97673.56;5045898;28;20053;-40
2021/07/03 07:56:54;;;;;;;8.55;5.07;;;20.10;62.60;;;19.94;53.45;97666.66;5045256;28;20356;-40
2021/07/03 07:59:22;;;;;;;6.90;5.88;;;20.10;63.20;;;19.98;53.05;97670.56;5044355;28;20398;-40
2021/07/03 08:01:50;;;;;;;6.55;4.68;;;20.20;62.60;;;20.01;52.63;97672.84;5041291;28;20057;-40
2021/07/03 08:04:18;;;;;;;5.95;4.85;;;20.30;62.30;;;20.04;51.96;97673.22;5043331;28;20350;-40
2021/07/03 08:06:46;;;;;;;7.60;6.07;;;20.30;61.70;;;20.12;52.17;97666.69;5043918;28;20057;-40
2021/07/03 08:09:15;;;;;;;7.63;5.18;;;20.30;61.30;;;20.15;52.08;97660.03;5054285;28;20059;-40
2021/07/03 08:11:43;;;;;;;6.35;4.90;;;20.30;61.20;;;20.18;52.04;97656.88;5058599;28;20053;-40
2021/07/03 08:14:11;;;;;;;6.75;5.13;;;20.40;61.30;;;20.18;51.54;97652.31;5061548;28;20045;-40
2021/07/03 08:16:39;;;;;;;7.10;4.97;;;20.40;61.00;;;20.21;51.97;97661.84;5060046;28;20033;-40
2021/07/03 08:19:07;;;;;;;6.22;5.25;;;20.40;61.10;;;20.24;52.05;97650.59;5060681;28;20063;-40
2021/07/03 08:21:35;;;;;;;5.95;4.60;;;20.40;61.50;;;20.30;51.46;97659.66;5058330;28;20055;-39
2021/07/03 08:24:04;;;;;;;6.38;5.63;;;20.50;60.80;;;20.31;50.34;97654.06;5058020;28;20063;-39
2021/07/03 08:26:32;;;;;;;6.35;5.30;;;20.50;59.40;;;20.33;50.30;97649.25;5072368;28;20269;-39
2021/07/03 08:29:01;;;;;;;7.18;5.20;;;20.50;59.40;;;20.38;51.08;97652.13;5059631;28;20045;-40
2021/07/03 08:31:30;;;;;;;7.43;5.13;;;20.60;59.90;;;20.43;50.99;97659.53;5058410;28;20258;-39
2021/07/03 08:33:58;;;;;;;7.60;5.75;;;20.60;59.70;;;20.50;51.14;97656.78;5068797;28;20049;-39
2021/07/03 08:36:26;;;;;;;6.43;5.20;;;20.70;60.30;;;20.54;51.94;97652.56;5045089;28;20298;-40
2021/07/03 08:38:54;;;;;;;8.50;5.07;;;20.70;61.10;;;20.61;51.83;97647.97;5045069;28;20060;-39
2021/07/03 08:41:22;;;;;;;11.45;5.97;;;20.80;61.20;;;20.64;51.52;97650.19;5045381;28;20256;-39
2021/07/03 08:43:50;;;;;;;5.88;5.00;;;20.90;60.70;;;20.69;51.04;97650.34;5043775;28;20075;-39
2021/07/03 08:46:20;;;;;;;7.22;5.47;;;20.90;60.00;;;20.75;51.26;97654.84;5045434;28;20056;-39
2021/07/03 08:48:56;;;;;;;8.07;5.28;;;21.00;60.30;;;20.80;50.49;97655.00;5042215;28;20350;-39
2021/07/03 08:51:24;;;;;;;7.57;5.60;;;21.10;59.50;;;20.85;50.81;97655.16;5044653;28;20060;-39
2021/07/03 08:53:52;;;;;;;5.65;5.03;;;21.10;60.00;;;20.92;50.03;97648.81;5043918;28;20059;-39
2021/07/03 08:56:20;;;;;;;5.57;4.65;;;21.20;59.20;;;20.94;49.65;97652.97;5046177;28;20072;-39
2021/07/03 08:58:48;;;;;;;6.93;5.07;;;21.20;58.10;;;20.96;49.01;97650.03;5044173;28;20060;-39
2021/07/03 09:01:17;;;;;;;5.90;4.88;;;21.20;57.70;;;21.01;49.12;97648.31;5043505;28;20045;-39
2021/07/03 09:03:56;;;;;;;5.38;4.53;;;21.20;57.90;;;21.06;48.91;97650.31;5045174;28;20045;-39
2021/07/03 09:06:33;;;;;;;7.68;6.07;;;21.30;57.20;;;21.11;49.48;97644.22;5043364;28;20045;-39
2021/07/03 09:09:02;;;;;;;8.38;6.90;;;21.40;57.90;;;21.13;49.63;97642.94;5043617;28;20053;-41
2021/07/03 09:11:31;;;;;;;6.90;6.18;;;21.40;58.50;;;21.14;49.50;97631.03;5044075;28;20464;-39
2021/07/03 09:14:05;;;;;;;6.72;5.80;;;21.40;58.30;;;21.22;49.48;97635.31;5043307;28;20067;-39
2021/07/03 09:16:36;;;;;;;6.28;5.40;;;21.40;58.70;;;21.26;49.33;97641.09;5044010;28;20356;-39
2021/07/03 09:19:05;;;;;;;5.95;5.35;;;21.50;58.40;;;21.28;49.35;97630.88;5044096;28;20057;-39
2021/07/03 09:21:33;;;;;;;7.20;5.20;;;21.50;58.50;;;21.32;50.08;97632.06;5048053;28;20055;-39
2021/07/03 09:24:13;;;;;;;5.95;4.63;;;21.60;58.70;;;21.34;49.66;97628.06;5047735;28;20041;-39
2021/07/03 09:26:41;;;;;;;11.57;5.78;;;21.60;58.00;;;21.42;49.05;97633.16;5048238;28;20041;-39
2021/07/03 09:29:11;;;;;;;6.93;5.18;;;21.70;58.20;;;21.48;48.89;97626.03;5047750;28;20048;-40
2021/07/03 09:31:42;;;;;;;7.22;5.00;;;21.70;57.50;;;21.54;48.02;97633.22;5048096;28;20063;-40
2021/07/03 09:34:14;;;;;;;7.10;5.53;;;21.80;56.20;;;21.57;48.53;97626.50;5048048;28;20057;-39
2021/07/03 09:36:42;;;;;;;7.35;5.65;;;21.80;56.60;;;21.59;48.13;97630.63;5047297;28;20053;-39
2021/07/03 09:39:19;;;;;;;6.80;5.20;;;21.90;56.90;;;21.60;48.43;97628.75;5048470;28;20065;-40
2021/07/03 09:41:48;;;;;;;7.30;5.53;;;21.90;57.30;;;21.66;49.28;97624.31;5046148;28;20045;-39
2021/07/03 09:44:15;;;;;;;6.78;5.95;;;21.90;58.10;;;21.69;48.70;97626.53;5047727;28;20052;-40
2021/07/03 09:46:52;;;;;;;8.00;5.88;;;21.90;57.90;;;21.72;48.89;97618.75;5047870;28;20063;-40
2021/07/03 09:49:28;;;;;;;6.38;5.50;;;21.90;58.00;;;21.78;47.94;97612.41;5047593;28;20060;-40
2021/07/03 09:52:00;;;;;;;6.88;5.60;;;21.90;57.50;;;21.80;47.58;97610.28;5047563;28;20295;-40
2021/07/03 09:54:31;;;;;;;7.95;5.72;;;22.00;57.00;;;21.82;47.66;97605.44;5046889;28;20242;-40
2021/07/03 09:56:59;;;;;;;7.78;5.80;;;22.10;56.20;;;21.86;47.95;97608.53;5046799;28;20045;-40
2021/07/03 09:59:36;;;;;;;8.25;5.65;;;22.10;56.80;;;21.89;47.74;97605.34;5044830;28;20057;-41
2021/07/03 10:02:05;;;;;;;7.07;5.35;;;22.10;56.60;;;21.99;48.34;97600.16;5047755;28;20277;-40
2021/07/03 10:04:33;;;;;;;5.65;4.78;;;22.20;57.50;;;22.08;48.52;97589.81;5049383;28;20238;-40
2021/07/03 10:07:22;;;;;;;7.63;5.80;;;22.30;57.30;;;22.14;48.84;97588.84;5046349;28;20072;-40
2021/07/03 10:10:06;;;;;;;6.70;5.43;;;22.50;57.20;;;22.22;48.24;97587.66;5045377;28;20052;-40
2021/07/03 10:12:38;;;;;;;6.07;5.45;;;22.50;57.10;;;22.25;48.15;97587.22;5046813;28;20037;-40
2021/07/03 10:15:07;;;;;;;6.15;5.55;;;22.50;56.80;;;22.29;47.88;97592.97;5047140;28;20250;-41
2021/07/03 10:17:36;;;;;;;7.53;5.70;;;22.60;56.30;;;22.35;47.70;97597.44;5046468;28;20404;-40
2021/07/03 10:20:15;;;;;;;8.32;5.50;;;22.60;56.30;;;22.45;47.51;97599.56;5047264;28;20053;-40
2021/07/03 10:22:53;;;;;;;6.03;5.05;;;22.70;56.30;;;22.49;46.89;97592.59;5048198;28;20354;-40
2021/07/03 10:25:35;;;;;;;6.55;4.93;;;22.80;55.00;;;22.52;46.54;97586.69;5045501;28;20057;-40
2021/07/03 10:28:10;;;;;;;7.25;5.20;;;22.80;55.00;;;22.55;47.19;97587.06;5046868;28;20049;-40